sensor_id;sensor_type;location;lat;lon;timestamp;temperature;humidity
25214;DHT22;13160;51.834;4.706;2024-01-30T00:05:03;9.20;99.90
25214;DHT22;13160;51.834;4.706;2024-01-30T00:08:12;9.20;99.90
25214;DHT22;13160;51.834;4.706;2024-01-30T00:11:13;9.20;99.90
25214;DHT22;13160;51.834;4.706;2024-01-30T00:18:35;9.20;99.90
25214;DHT22;13160;51.834;4.706;2024-01-30T00:21:33;9.10;99.90
25214;DHT22;13160;51.834;4.706;2024-01-30T00:24:20;9.20;99.90
25214;DHT22;13160;51.834;4.706;2024-01-30T00:27:10;9.20;99.90
25214;DHT22;13160;51.834;4.706;2024-01-30T00:31:00;9.20;99.90
25214;DHT22;13160;51.834;4.706;2024-01-30T00:34:33;9.20;99.90
25214;DHT22;13160;51.834;4.706;2024-01-30T00:42:46;9.20;99.90
25214;DHT22;13160;51.834;4.706;2024-01-30T03:54:16;9.40;99.90
25214;DHT22;13160;51.834;4.706;2024-01-30T03:56:52;9.40;99.90
25214;DHT22;13160;51.834;4.706;2024-01-30T03:59:36;9.50;99.90
25214;DHT22;13160;51.834;4.706;2024-01-30T04:05:51;9.40;99.90
25214;DHT22;13160;51.834;4.706;2024-01-30T04:08:21;9.50;99.90
25214;DHT22;13160;51.834;4.706;2024-01-30T06:24:41;9.80;99.90
25214;DHT22;13160;51.834;4.706;2024-01-30T06:28:15;9.80;99.90
25214;DHT22;13160;51.834;4.706;2024-01-30T06:31:17;9.90;99.90
25214;DHT22;13160;51.834;4.706;2024-01-30T06:50:25;10.00;99.90
25214;DHT22;13160;51.834;4.706;2024-01-30T06:53:35;10.00;99.90
25214;DHT22;13160;51.834;4.706;2024-01-30T07:00:19;10.10;99.90
25214;DHT22;13160;51.834;4.706;2024-01-30T07:02:53;10.10;99.90
25214;DHT22;13160;51.834;4.706;2024-01-30T07:05:23;10.10;99.90
25214;DHT22;13160;51.834;4.706;2024-01-30T07:08:52;10.10;99.90
25214;DHT22;13160;51.834;4.706;2024-01-30T07:39:26;10.50;99.90
25214;DHT22;13160;51.834;4.706;2024-01-30T07:42:00;10.60;99.90
25214;DHT22;13160;51.834;4.706;2024-01-30T07:44:33;10.50;99.90
25214;DHT22;13160;51.834;4.706;2024-01-30T07:47:02;10.60;99.90
25214;DHT22;13160;51.834;4.706;2024-01-30T07:49:36;10.60;99.90
25214;DHT22;13160;51.834;4.706;2024-01-30T07:52:09;10.60;99.90
25214;DHT22;13160;51.834;4.706;2024-01-30T07:54:51;10.70;99.90
25214;DHT22;13160;51.834;4.706;2024-01-30T07:57:24;10.60;99.90
25214;DHT22;13160;51.834;4.706;2024-01-30T08:00:18;10.70;99.90
25214;DHT22;13160;51.834;4.706;2024-01-30T13:15:42;10.60;99.90
25214;DHT22;13160;51.834;4.706;2024-01-30T13:18:14;10.60;99.90
25214;DHT22;13160;51.834;4.706;2024-01-30T13:20:43;10.60;99.90
25214;DHT22;13160;51.834;4.706;2024-01-30T13:23:14;10.60;99.90
25214;DHT22;13160;51.834;4.706;2024-01-30T13:25:43;10.50;99.90
25214;DHT22;13160;51.834;4.706;2024-01-30T13:28:17;10.50;99.90
25214;DHT22;13160;51.834;4.706;2024-01-30T13:31:06;10.50;99.90
25214;DHT22;13160;51.834;4.706;2024-01-30T13:33:38;10.50;99.90
25214;DHT22;13160;51.834;4.706;2024-01-30T13:36:25;10.50;99.90
25214;DHT22;13160;51.834;4.706;2024-01-30T13:39:03;10.50;99.90
25214;DHT22;13160;51.834;4.706;2024-01-30T14:58:09;9.90;99.90
25214;DHT22;13160;51.834;4.706;2024-01-30T15:14:58;9.80;99.90
25214;DHT22;13160;51.834;4.706;2024-01-30T15:17:39;9.80;99.90
25214;DHT22;13160;51.834;4.706;2024-01-30T15:20:13;9.70;99.90
25214;DHT22;13160;51.834;4.706;2024-01-30T15:22:43;9.70;99.90
25214;DHT22;13160;51.834;4.706;2024-01-30T15:25:13;9.70;99.90
25214;DHT22;13160;51.834;4.706;2024-01-30T15:28:33;9.70;99.90
25214;DHT22;13160;51.834;4.706;2024-01-30T15:31:12;9.60;99.90
25214;DHT22;13160;51.834;4.706;2024-01-30T15:33:56;9.60;99.90
25214;DHT22;13160;51.834;4.706;2024-01-30T15:36:26;9.50;99.90
25214;DHT22;13160;51.834;4.706;2024-01-30T15:39:01;9.60;99.90
25214;DHT22;13160;51.834;4.706;2024-01-30T15:41:34;9.60;99.90
25214;DHT22;13160;51.834;4.706;2024-01-30T16:13:58;9.30;99.90
25214;DHT22;13160;51.834;4.706;2024-01-30T16:16:29;9.30;99.90
25214;DHT22;13160;51.834;4.706;2024-01-30T16:19:03;9.30;99.90
25214;DHT22;13160;51.834;4.706;2024-01-30T16:29:40;9.20;99.90
25214;DHT22;13160;51.834;4.706;2024-01-30T16:32:19;9.20;99.90
25214;DHT22;13160;51.834;4.706;2024-01-30T16:34:49;9.20;99.90
25214;DHT22;13160;51.834;4.706;2024-01-30T16:37:21;9.20;99.90
25214;DHT22;13160;51.834;4.706;2024-01-30T16:39:53;9.20;99.90
25214;DHT22;13160;51.834;4.706;2024-01-30T16:42:23;9.20;99.90
25214;DHT22;13160;51.834;4.706;2024-01-30T16:44:59;9.10;99.90
25214;DHT22;13160;51.834;4.706;2024-01-30T17:03:43;9.10;99.90
25214;DHT22;13160;51.834;4.706;2024-01-30T17:06:15;9.10;99.90
25214;DHT22;13160;51.834;4.706;2024-01-30T17:08:44;9.10;99.90
25214;DHT22;13160;51.834;4.706;2024-01-30T17:11:13;9.10;99.90
25214;DHT22;13160;51.834;4.706;2024-01-30T17:13:42;9.00;99.90
25214;DHT22;13160;51.834;4.706;2024-01-30T17:16:11;9.00;99.90
25214;DHT22;13160;51.834;4.706;2024-01-30T17:18:51;9.00;99.90
25214;DHT22;13160;51.834;4.706;2024-01-30T17:21:27;9.00;99.90
25214;DHT22;13160;51.834;4.706;2024-01-30T17:24:01;9.00;99.90
25214;DHT22;13160;51.834;4.706;2024-01-30T17:26:34;9.00;99.90
25214;DHT22;13160;51.834;4.706;2024-01-30T17:29:12;9.00;99.90
25214;DHT22;13160;51.834;4.706;2024-01-30T17:31:42;9.00;99.90
25214;DHT22;13160;51.834;4.706;2024-01-30T17:34:22;9.00;99.90
25214;DHT22;13160;51.834;4.706;2024-01-30T17:37:01;9.00;99.90
25214;DHT22;13160;51.834;4.706;2024-01-30T17:53:11;8.90;99.90
25214;DHT22;13160;51.834;4.706;2024-01-30T17:55:55;8.90;99.90
25214;DHT22;13160;51.834;4.706;2024-01-30T17:58:37;8.90;99.90
25214;DHT22;13160;51.834;4.706;2024-01-30T18:01:17;8.90;99.90
25214;DHT22;13160;51.834;4.706;2024-01-30T18:07:51;8.90;99.90
25214;DHT22;13160;51.834;4.706;2024-01-30T18:23:05;8.80;99.90
25214;DHT22;13160;51.834;4.706;2024-01-30T19:11:32;8.70;99.90
25214;DHT22;13160;51.834;4.706;2024-01-30T19:14:18;8.70;99.90
25214;DHT22;13160;51.834;4.706;2024-01-30T19:17:02;8.70;99.90
25214;DHT22;13160;51.834;4.706;2024-01-30T19:20:04;8.70;99.90
25214;DHT22;13160;51.834;4.706;2024-01-30T19:36:10;8.60;99.90
25214;DHT22;13160;51.834;4.706;2024-01-30T19:39:48;8.70;99.90
25214;DHT22;13160;51.834;4.706;2024-01-30T19:42:58;8.60;99.90
25214;DHT22;13160;51.834;4.706;2024-01-30T19:46:44;8.70;99.90
25214;DHT22;13160;51.834;4.706;2024-01-30T19:49:21;8.60;99.90
25214;DHT22;13160;51.834;4.706;2024-01-30T19:51:59;8.60;99.90
25214;DHT22;13160;51.834;4.706;2024-01-30T19:54:46;8.60;99.90
25214;DHT22;13160;51.834;4.706;2024-01-30T20:06:26;8.60;99.90
25214;DHT22;13160;51.834;4.706;2024-01-30T20:09:41;8.60;99.90
25214;DHT22;13160;51.834;4.706;2024-01-30T20:14:47;8.60;99.90
25214;DHT22;13160;51.834;4.706;2024-01-30T20:17:23;8.50;99.90
25214;DHT22;13160;51.834;4.706;2024-01-30T20:19:57;8.60;99.90
25214;DHT22;13160;51.834;4.706;2024-01-30T20:22:29;8.50;99.90
25214;DHT22;13160;51.834;4.706;2024-01-30T20:25:00;8.60;99.90
25214;DHT22;13160;51.834;4.706;2024-01-30T20:27:45;8.50;99.90
25214;DHT22;13160;51.834;4.706;2024-01-30T20:30:32;8.60;99.90
25214;DHT22;13160;51.834;4.706;2024-01-30T20:33:05;8.60;99.90
25214;DHT22;13160;51.834;4.706;2024-01-30T20:35:45;8.50;99.90
25214;DHT22;13160;51.834;4.706;2024-01-30T20:38:21;8.50;99.90
25214;DHT22;13160;51.834;4.706;2024-01-30T20:41:00;8.50;99.90
25214;DHT22;13160;51.834;4.706;2024-01-30T20:43:37;8.50;99.90
25214;DHT22;13160;51.834;4.706;2024-01-30T20:46:23;8.50;99.90
25214;DHT22;13160;51.834;4.706;2024-01-30T20:49:07;8.50;99.90
25214;DHT22;13160;51.834;4.706;2024-01-30T20:51:51;8.40;99.90
25214;DHT22;13160;51.834;4.706;2024-01-30T20:54:25;8.50;99.90
25214;DHT22;13160;51.834;4.706;2024-01-30T20:56:57;8.40;99.90
25214;DHT22;13160;51.834;4.706;2024-01-30T20:59:40;8.40;99.90
25214;DHT22;13160;51.834;4.706;2024-01-30T21:02:09;8.40;99.90
25214;DHT22;13160;51.834;4.706;2024-01-30T21:04:40;8.30;99.90
25214;DHT22;13160;51.834;4.706;2024-01-30T21:13:02;8.30;99.90
25214;DHT22;13160;51.834;4.706;2024-01-30T21:15:37;8.30;99.90
25214;DHT22;13160;51.834;4.706;2024-01-30T21:18:17;8.30;99.90
25214;DHT22;13160;51.834;4.706;2024-01-30T21:20:46;8.30;99.90
25214;DHT22;13160;51.834;4.706;2024-01-30T21:23:45;8.30;99.90
25214;DHT22;13160;51.834;4.706;2024-01-30T21:41:33;8.30;99.90
25214;DHT22;13160;51.834;4.706;2024-01-30T21:44:22;8.40;99.90
25214;DHT22;13160;51.834;4.706;2024-01-30T22:16:43;8.20;99.90
25214;DHT22;13160;51.834;4.706;2024-01-30T22:19:12;8.20;99.90
25214;DHT22;13160;51.834;4.706;2024-01-30T22:21:42;8.20;99.90
25214;DHT22;13160;51.834;4.706;2024-01-30T22:24:12;8.20;99.90
25214;DHT22;13160;51.834;4.706;2024-01-30T22:26:56;8.20;99.90
25214;DHT22;13160;51.834;4.706;2024-01-30T22:29:32;8.20;99.90
25214;DHT22;13160;51.834;4.706;2024-01-30T22:32:06;8.20;99.90
25214;DHT22;13160;51.834;4.706;2024-01-30T22:34:46;8.20;99.90
25214;DHT22;13160;51.834;4.706;2024-01-30T22:37:37;8.20;99.90
25214;DHT22;13160;51.834;4.706;2024-01-30T22:40:09;8.20;99.90
25214;DHT22;13160;51.834;4.706;2024-01-30T22:42:42;8.20;99.90
25214;DHT22;13160;51.834;4.706;2024-01-30T22:45:15;8.20;99.90
25214;DHT22;13160;51.834;4.706;2024-01-30T22:47:45;8.20;99.90
25214;DHT22;13160;51.834;4.706;2024-01-30T22:50:16;8.20;99.90
25214;DHT22;13160;51.834;4.706;2024-01-30T22:52:48;8.20;99.90
25214;DHT22;13160;51.834;4.706;2024-01-30T22:55:17;8.20;99.90
25214;DHT22;13160;51.834;4.706;2024-01-30T22:57:48;8.20;99.90
25214;DHT22;13160;51.834;4.706;2024-01-30T23:00:20;8.20;99.90
25214;DHT22;13160;51.834;4.706;2024-01-30T23:02:57;8.20;99.90
25214;DHT22;13160;51.834;4.706;2024-01-30T23:05:30;8.10;99.90
25214;DHT22;13160;51.834;4.706;2024-01-30T23:08:02;8.10;99.90
25214;DHT22;13160;51.834;4.706;2024-01-30T23:10:34;8.10;99.90
25214;DHT22;13160;51.834;4.706;2024-01-30T23:13:04;8.10;99.90
25214;DHT22;13160;51.834;4.706;2024-01-30T23:15:33;8.10;99.90
25214;DHT22;13160;51.834;4.706;2024-01-30T23:18:08;8.10;99.90
25214;DHT22;13160;51.834;4.706;2024-01-30T23:20:38;8.10;99.90
25214;DHT22;13160;51.834;4.706;2024-01-30T23:23:08;8.10;99.90
25214;DHT22;13160;51.834;4.706;2024-01-30T23:25:40;8.10;99.90
25214;DHT22;13160;51.834;4.706;2024-01-30T23:28:09;8.10;99.90
25214;DHT22;13160;51.834;4.706;2024-01-30T23:30:39;8.10;99.90
25214;DHT22;13160;51.834;4.706;2024-01-30T23:33:14;8.10;99.90
25214;DHT22;13160;51.834;4.706;2024-01-30T23:35:43;8.10;99.90
25214;DHT22;13160;51.834;4.706;2024-01-30T23:38:19;8.10;99.90
25214;DHT22;13160;51.834;4.706;2024-01-30T23:40:48;8.10;99.90
25214;DHT22;13160;51.834;4.706;2024-01-30T23:43:18;8.10;99.90
25214;DHT22;13160;51.834;4.706;2024-01-30T23:45:50;8.10;99.90
25214;DHT22;13160;51.834;4.706;2024-01-30T23:48:24;8.00;99.90
25214;DHT22;13160;51.834;4.706;2024-01-30T23:50:53;8.10;99.90
25214;DHT22;13160;51.834;4.706;2024-01-30T23:53:27;8.00;99.90
25214;DHT22;13160;51.834;4.706;2024-01-30T23:56:02;8.10;99.90
25214;DHT22;13160;51.834;4.706;2024-01-30T23:58:35;8.00;99.90
